createdAt,value
2022-08-01T00:01:16.566Z,1.10
2022-08-01T00:03:44.143Z,1.05
2022-08-01T00:06:11.788Z,0.80
2022-08-01T00:08:39.429Z,1.00
2022-08-01T00:11:07.170Z,0.90
2022-08-01T00:13:34.738Z,0.95
2022-08-01T00:16:02.389Z,0.93
2022-08-01T00:18:31.325Z,1.35
2022-08-01T00:20:59.041Z,0.75
2022-08-01T00:23:26.587Z,1.00
2022-08-01T00:25:54.220Z,1.08
2022-08-01T00:28:21.736Z,0.93
2022-08-01T00:30:49.388Z,0.90
2022-08-01T00:33:16.930Z,0.90
2022-08-01T00:35:45.868Z,0.93
2022-08-01T00:38:13.513Z,1.15
2022-08-01T00:40:41.118Z,0.90
2022-08-01T00:43:08.688Z,0.90
2022-08-01T00:45:36.323Z,1.00
2022-08-01T00:48:04.008Z,0.93
2022-08-01T00:50:31.675Z,0.90
2022-08-01T00:53:01.160Z,1.08
2022-08-01T00:55:28.938Z,0.95
2022-08-01T00:58:04.770Z,0.90
2022-08-01T01:00:44.833Z,1.00
2022-08-01T01:03:23.834Z,1.30
2022-08-01T01:06:07.451Z,1.05
2022-08-01T01:08:39.222Z,1.23
2022-08-01T01:11:09.941Z,1.23
2022-08-01T01:13:49.567Z,0.98
2022-08-01T01:16:18.962Z,1.63
2022-08-01T01:18:47.358Z,1.23
2022-08-01T01:21:22.523Z,1.38
2022-08-01T01:23:58.485Z,1.27
2022-08-01T01:26:28.612Z,1.20
2022-08-01T01:29:04.988Z,1.45
2022-08-01T01:31:33.078Z,1.50
2022-08-01T01:34:00.660Z,1.10
2022-08-01T01:36:28.312Z,1.55
2022-08-01T01:38:55.882Z,1.50
2022-08-01T01:41:23.434Z,1.50
2022-08-01T01:43:51.532Z,1.42
2022-08-01T01:46:23.489Z,1.60
2022-08-01T01:48:51.150Z,1.67
2022-08-01T01:51:19.273Z,1.50
2022-08-01T01:53:46.852Z,1.30
2022-08-01T01:56:14.522Z,1.33
2022-08-01T01:58:42.109Z,1.30
2022-08-01T02:01:14.348Z,1.17
2022-08-01T02:03:43.994Z,1.20
2022-08-01T02:06:11.581Z,1.50
2022-08-01T02:08:39.159Z,1.02
2022-08-01T02:11:22.412Z,1.40
2022-08-01T02:13:52.111Z,1.25
2022-08-01T02:16:19.889Z,1.40
2022-08-01T02:18:48.789Z,1.17
2022-08-01T02:21:18.343Z,1.40
2022-08-01T02:23:45.994Z,1.20
2022-08-01T02:26:15.783Z,1.08
2022-08-01T02:28:43.853Z,1.40
2022-08-01T02:31:12.541Z,1.30
2022-08-01T02:33:40.567Z,1.52
2022-08-01T02:36:29.748Z,1.15
2022-08-01T02:38:58.087Z,1.35
2022-08-01T02:41:25.908Z,1.65
2022-08-01T02:43:54.152Z,1.25
2022-08-01T02:46:23.097Z,1.27
2022-08-01T02:48:51.249Z,1.50
2022-08-01T02:51:20.196Z,1.42
2022-08-01T02:53:48.194Z,1.40
2022-08-01T02:56:15.736Z,1.58
2022-08-01T02:58:43.340Z,1.20
2022-08-01T03:01:23.131Z,1.27
2022-08-01T03:03:55.668Z,1.75
2022-08-01T03:06:24.620Z,1.33
2022-08-01T03:08:52.219Z,1.38
2022-08-01T03:11:19.762Z,1.70
2022-08-01T03:13:47.368Z,1.60
2022-08-01T03:16:14.937Z,1.40
2022-08-01T03:18:42.524Z,1.35
2022-08-01T03:21:10.051Z,1.40
2022-08-01T03:23:39.068Z,1.60
2022-08-01T03:26:07.013Z,1.65
2022-08-01T03:28:34.596Z,1.90
2022-08-01T03:31:02.188Z,1.60
2022-08-01T03:33:29.782Z,1.75
2022-08-01T03:35:57.326Z,1.75
2022-08-01T03:38:25.207Z,1.95
2022-08-01T03:40:55.310Z,1.60
2022-08-01T03:43:25.081Z,1.70
2022-08-01T03:45:52.929Z,1.95
2022-08-01T03:48:20.925Z,1.60
2022-08-01T03:50:52.849Z,1.52
2022-08-01T03:53:20.965Z,1.58
2022-08-01T03:55:48.630Z,1.75
2022-08-01T03:58:17.565Z,1.52
2022-08-01T04:00:45.201Z,2.03
2022-08-01T04:03:22.448Z,1.90
2022-08-01T04:05:50.053Z,1.73
2022-08-01T04:08:17.632Z,1.90
2022-08-01T04:10:45.214Z,1.73
2022-08-01T04:13:13.685Z,2.15
2022-08-01T04:15:42.830Z,2.00
2022-08-01T04:18:10.476Z,2.28
2022-08-01T04:20:38.080Z,2.47
2022-08-01T04:23:05.789Z,2.33
2022-08-01T04:25:34.749Z,2.30
2022-08-01T04:28:04.877Z,2.83
2022-08-01T04:30:33.248Z,3.03
2022-08-01T04:33:02.273Z,2.83
2022-08-01T04:36:01.888Z,3.20
2022-08-01T04:38:19.876Z,2.97
2022-08-01T04:40:47.513Z,3.08
2022-08-01T04:43:15.307Z,2.72
2022-08-01T04:45:44.403Z,3.38
2022-08-01T04:48:13.400Z,3.22
2022-08-01T04:50:42.797Z,3.50
2022-08-01T04:53:14.024Z,3.15
2022-08-01T04:55:41.681Z,3.10
2022-08-01T04:58:09.228Z,4.35
2022-08-01T05:00:36.819Z,3.30
2022-08-01T05:03:04.575Z,3.80
2022-08-01T05:05:51.320Z,4.20
2022-08-01T05:08:20.335Z,3.97
2022-08-01T05:10:47.957Z,4.32
2022-08-01T05:13:15.528Z,3.75
2022-08-01T05:15:43.497Z,4.60
2022-08-01T05:18:11.231Z,5.30
2022-08-01T05:20:38.886Z,4.55
2022-08-01T05:23:06.625Z,5.00
2022-08-01T05:25:57.118Z,4.35
2022-08-01T05:28:29.195Z,5.05
2022-08-01T05:30:57.520Z,4.80
2022-08-01T05:33:25.377Z,4.70
2022-08-01T05:35:52.975Z,4.47
2022-08-01T05:38:20.644Z,4.75
2022-08-01T05:40:49.610Z,4.70
2022-08-01T05:43:17.247Z,5.00
2022-08-01T05:45:45.511Z,5.38
2022-08-01T05:48:13.240Z,5.65
2022-08-01T05:50:40.788Z,6.18
2022-08-01T05:53:08.650Z,5.95
2022-08-01T05:55:36.541Z,5.65
2022-08-01T05:58:05.553Z,6.13
2022-08-01T06:00:33.162Z,5.95
2022-08-01T06:03:00.820Z,6.15
2022-08-01T06:05:28.552Z,5.97
2022-08-01T06:07:56.280Z,6.75
2022-08-01T06:10:24.197Z,6.38
2022-08-01T06:12:51.819Z,7.13
2022-08-01T06:15:20.864Z,5.55
2022-08-01T06:17:48.495Z,6.65
2022-08-01T06:20:16.237Z,6.30
2022-08-01T06:22:43.837Z,5.65
2022-08-01T06:25:11.714Z,6.10
2022-08-01T06:27:39.316Z,6.00
2022-08-01T06:30:08.428Z,5.55
2022-08-01T06:32:37.482Z,5.78
2022-08-01T06:35:05.499Z,5.80
2022-08-01T06:37:33.368Z,6.45
2022-08-01T06:40:02.280Z,6.00
2022-08-01T06:42:29.980Z,6.40
2022-08-01T06:44:57.733Z,6.57
2022-08-01T06:47:25.346Z,6.15
2022-08-01T06:49:54.418Z,6.50
2022-08-01T06:52:22.030Z,5.55
2022-08-01T06:54:49.611Z,5.10
2022-08-01T06:57:17.457Z,4.68
2022-08-01T06:59:51.816Z,5.32
2022-08-01T07:02:22.438Z,5.43
2022-08-01T07:04:50.171Z,4.97
2022-08-01T07:07:19.134Z,5.45
2022-08-01T07:09:53.070Z,5.10
2022-08-01T07:12:20.939Z,4.93
2022-08-01T07:14:48.580Z,4.78
2022-08-01T07:17:16.253Z,4.88
2022-08-01T07:19:44.203Z,4.20
2022-08-01T07:22:14.992Z,4.88
2022-08-01T07:24:54.578Z,4.90
2022-08-01T07:27:25.699Z,4.55
2022-08-01T07:30:19.473Z,4.53
2022-08-01T07:32:47.141Z,4.50
2022-08-01T07:35:14.881Z,4.72
2022-08-01T07:37:48.562Z,4.15
2022-08-01T07:40:19.149Z,4.68
2022-08-01T07:42:46.723Z,4.30
2022-08-01T07:45:14.574Z,4.28
2022-08-01T07:47:42.474Z,4.95
2022-08-01T07:50:21.109Z,4.65
2022-08-01T07:52:48.867Z,5.20
2022-08-01T07:55:17.924Z,4.85
2022-08-01T07:57:45.939Z,3.92
2022-08-01T08:00:14.191Z,3.97
2022-08-01T08:02:42.303Z,4.00
2022-08-01T08:05:10.212Z,4.03
2022-08-01T08:10:10.207Z,4.20
2022-08-01T08:12:39.422Z,4.25
2022-08-01T08:15:07.787Z,4.90
2022-08-01T08:17:36.661Z,5.07
2022-08-01T08:20:05.025Z,4.78
2022-08-01T08:22:36.777Z,3.92
2022-08-01T08:25:04.527Z,3.00
2022-08-01T08:27:35.630Z,3.20
2022-08-01T08:30:08.534Z,3.35
2022-08-01T08:32:36.705Z,3.60
2022-08-01T08:35:04.617Z,3.70
2022-08-01T08:37:32.278Z,2.85
2022-08-01T08:40:07.231Z,3.42
2022-08-01T08:42:34.972Z,3.58
2022-08-01T08:45:02.936Z,3.40
2022-08-01T08:47:31.987Z,4.25
2022-08-01T08:49:59.682Z,4.20
2022-08-01T08:52:52.633Z,3.42
2022-08-01T08:55:20.318Z,3.25
2022-08-01T08:57:47.926Z,4.45
2022-08-01T09:00:15.929Z,3.13
2022-08-01T09:02:45.336Z,3.47
2022-08-01T09:05:16.196Z,3.72
2022-08-01T09:07:46.840Z,2.75
2022-08-01T09:10:14.713Z,3.00
2022-08-01T09:12:42.889Z,2.80
2022-08-01T09:15:10.984Z,2.65
2022-08-01T09:17:41.949Z,2.85
2022-08-01T09:20:11.580Z,2.72
2022-08-01T09:22:39.274Z,3.10
2022-08-01T09:25:07.846Z,2.58
2022-08-01T09:27:35.553Z,2.45
2022-08-01T09:30:09.932Z,2.63
2022-08-01T09:32:39.311Z,2.47
2022-08-01T09:35:29.995Z,2.03
2022-08-01T09:38:15.554Z,2.55
2022-08-01T09:40:46.883Z,2.35
2022-08-01T09:43:15.046Z,2.38
2022-08-01T09:45:43.943Z,2.75
2022-08-01T09:48:14.094Z,2.80
2022-08-01T09:50:44.099Z,2.42
2022-08-01T09:55:39.436Z,2.85
2022-08-01T09:58:07.259Z,2.30
2022-08-01T10:00:45.151Z,2.60
2022-08-01T10:03:22.914Z,2.80
2022-08-01T10:05:54.291Z,3.13
2022-08-01T10:08:24.157Z,2.60
2022-08-01T10:11:07.096Z,2.80
2022-08-01T10:13:36.961Z,2.40
2022-08-01T10:16:05.047Z,2.42
2022-08-01T10:18:34.195Z,2.40
2022-08-01T10:21:03.496Z,2.45
2022-08-01T10:23:40.237Z,2.30
2022-08-01T10:26:09.173Z,2.60
2022-08-01T10:28:38.691Z,2.50
2022-08-01T10:31:13.291Z,2.85
2022-08-01T10:33:52.739Z,2.63
2022-08-01T10:36:25.578Z,2.65
2022-08-01T10:38:53.814Z,2.55
2022-08-01T10:41:22.228Z,3.38
2022-08-01T10:43:49.809Z,3.00
2022-08-01T10:46:17.587Z,2.55
2022-08-01T10:48:47.094Z,2.97
2022-08-01T10:51:18.193Z,3.22
2022-08-01T10:53:54.136Z,2.83
2022-08-01T10:56:39.857Z,2.30
2022-08-01T10:59:11.809Z,2.53
2022-08-01T11:01:45.046Z,2.60
2022-08-01T11:04:16.430Z,2.30
2022-08-01T11:06:59.887Z,2.60
2022-08-01T11:09:36.315Z,2.80
2022-08-01T11:12:13.421Z,2.78
2022-08-01T11:15:10.238Z,2.20
2022-08-01T11:17:42.051Z,2.20
2022-08-01T11:20:11.000Z,2.97
2022-08-01T11:22:59.798Z,2.88
2022-08-01T11:26:05.561Z,2.92
2022-08-01T11:30:56.433Z,2.97
2022-08-01T11:33:49.426Z,2.00
2022-08-01T11:36:36.966Z,2.33
2022-08-01T11:39:15.646Z,2.60
2022-08-01T11:41:45.298Z,2.40
2022-08-01T11:44:14.458Z,2.20
2022-08-01T11:46:49.786Z,1.75
2022-08-01T11:49:29.632Z,2.20
2022-08-01T11:52:00.916Z,1.90
2022-08-01T11:54:35.103Z,2.00
2022-08-01T11:57:16.814Z,1.50
2022-08-01T12:00:02.899Z,1.50
2022-08-01T12:02:48.076Z,1.60
2022-08-01T12:05:17.641Z,1.90
2022-08-01T12:07:45.910Z,2.53
2022-08-01T12:10:13.983Z,2.58
2022-08-01T12:12:44.320Z,2.38
2022-08-01T12:15:14.014Z,2.05
2022-08-01T12:17:47.034Z,1.70
2022-08-01T12:20:30.103Z,2.08
2022-08-01T12:22:58.680Z,2.20
2022-08-01T12:25:26.475Z,1.50
2022-08-01T12:27:56.513Z,1.80
2022-08-01T12:30:26.107Z,1.42
2022-08-01T12:32:54.119Z,1.65
2022-08-01T12:35:23.917Z,1.20
2022-08-01T12:37:51.959Z,1.33
2022-08-01T12:40:20.054Z,1.40
2022-08-01T12:42:48.151Z,1.33
2022-08-01T12:45:17.837Z,1.50
2022-08-01T12:47:46.793Z,1.45
2022-08-01T12:50:14.943Z,1.48
2022-08-01T12:52:42.561Z,1.60
2022-08-01T12:55:11.789Z,1.67
2022-08-01T12:57:40.500Z,1.95
2022-08-01T13:00:09.475Z,2.20
2022-08-01T13:05:06.957Z,2.00
2022-08-01T13:07:45.389Z,2.08
2022-08-01T13:10:13.744Z,2.05
2022-08-01T13:12:41.601Z,2.47
2022-08-01T13:15:22.643Z,2.28
2022-08-01T13:17:50.400Z,2.13
2022-08-01T13:20:28.998Z,2.30
2022-08-01T13:22:56.714Z,2.38
2022-08-01T13:25:26.899Z,2.10
2022-08-01T13:28:10.207Z,2.15
2022-08-01T13:30:38.123Z,2.22
2022-08-01T13:33:05.808Z,2.35
2022-08-01T13:35:34.792Z,2.20
2022-08-01T13:38:02.921Z,2.00
2022-08-01T13:40:30.605Z,1.90
2022-08-01T13:42:58.356Z,2.20
2022-08-01T13:45:26.444Z,1.83
2022-08-01T13:48:12.487Z,1.70
2022-08-01T13:50:43.768Z,1.80
2022-08-01T13:53:11.689Z,1.80
2022-08-01T13:55:39.550Z,1.88
2022-08-01T13:58:07.453Z,1.90
2022-08-01T14:00:35.868Z,1.30
2022-08-01T14:03:03.469Z,1.60
2022-08-01T14:05:31.510Z,1.65
2022-08-01T14:08:00.493Z,1.27
2022-08-01T14:10:29.152Z,1.35
2022-08-01T14:12:57.438Z,1.58
2022-08-01T14:15:37.856Z,1.15
2022-08-01T14:18:07.652Z,1.52
2022-08-01T14:20:37.820Z,1.35
2022-08-01T14:23:08.911Z,1.52
2022-08-01T14:26:03.262Z,1.50
2022-08-01T14:28:26.410Z,1.70
2022-08-01T14:30:56.329Z,1.65
2022-08-01T14:33:24.234Z,1.50
2022-08-01T14:36:05.443Z,1.20
2022-08-01T14:38:41.040Z,1.45
2022-08-01T14:41:09.075Z,1.17
2022-08-01T14:43:36.669Z,1.27
2022-08-01T14:46:05.104Z,1.30
2022-08-01T14:48:33.030Z,1.13
2022-08-01T14:51:03.406Z,1.05
2022-08-01T14:53:31.162Z,1.10
2022-08-01T14:56:00.192Z,0.90
2022-08-01T14:58:27.920Z,0.80
2022-08-01T15:00:59.645Z,1.10
2022-08-01T15:03:28.859Z,1.23
2022-08-01T15:05:56.673Z,0.88
2022-08-01T15:08:24.814Z,1.10
2022-08-01T15:10:52.745Z,1.00
2022-08-01T15:13:22.013Z,1.08
2022-08-01T15:15:49.665Z,0.90
2022-08-01T15:18:17.268Z,1.40
2022-08-01T15:20:46.041Z,1.00
2022-08-01T15:23:13.620Z,1.20
2022-08-01T15:25:42.284Z,1.08
2022-08-01T15:28:11.141Z,1.00
2022-08-01T15:30:40.049Z,1.30
2022-08-01T15:33:07.895Z,0.82
2022-08-01T15:35:35.635Z,1.40
2022-08-01T15:38:03.345Z,1.00
2022-08-01T15:40:35.237Z,1.13
2022-08-01T15:43:03.227Z,1.00
2022-08-01T15:45:47.337Z,1.10
2022-08-01T15:48:17.317Z,0.98
2022-08-01T15:50:45.032Z,1.20
2022-08-01T15:53:12.882Z,1.05
2022-08-01T15:55:40.539Z,0.93
2022-08-01T15:58:08.278Z,1.00
2022-08-01T16:00:40.069Z,1.10
2022-08-01T16:03:27.693Z,1.40
2022-08-01T16:05:56.859Z,1.00
2022-08-01T16:08:24.402Z,1.50
2022-08-01T16:10:52.063Z,1.40
2022-08-01T16:13:19.727Z,1.40
2022-08-01T16:15:47.309Z,1.42
2022-08-01T16:18:16.002Z,1.08
2022-08-01T16:20:45.733Z,1.15
2022-08-01T16:23:16.385Z,1.27
2022-08-01T16:25:44.582Z,1.08
2022-08-01T16:28:13.879Z,1.20
2022-08-01T16:30:54.230Z,1.02
2022-08-01T16:33:45.633Z,0.90
2022-08-01T16:36:17.407Z,0.85
2022-08-01T16:38:46.485Z,1.00
2022-08-01T16:41:19.509Z,0.77
2022-08-01T16:43:56.918Z,1.10
2022-08-01T16:46:25.329Z,0.80
2022-08-01T16:48:53.142Z,1.13
2022-08-01T16:51:20.913Z,1.15
2022-08-01T16:53:49.885Z,1.10
2022-08-01T16:56:17.549Z,1.20
2022-08-01T16:58:45.214Z,1.10
2022-08-01T17:01:58.817Z,0.95
2022-08-01T17:04:12.978Z,0.90
2022-08-01T17:06:40.768Z,0.93
2022-08-01T17:09:09.840Z,1.38
2022-08-01T17:11:37.682Z,1.17
2022-08-01T17:14:05.622Z,1.25
2022-08-01T17:16:33.414Z,1.30
2022-08-01T17:19:02.015Z,1.00
2022-08-01T17:21:30.045Z,1.20
2022-08-01T17:23:57.643Z,1.30
2022-08-01T17:26:26.677Z,1.00
2022-08-01T17:28:54.354Z,1.13
2022-08-01T17:31:22.060Z,1.17
2022-08-01T17:33:54.376Z,1.10
2022-08-01T17:36:22.774Z,0.93
2022-08-01T17:38:50.666Z,0.75
2022-08-01T17:41:18.681Z,0.80
2022-08-01T17:43:48.064Z,0.63
2022-08-01T17:46:15.891Z,0.85
2022-08-01T17:48:44.383Z,0.88
2022-08-01T17:51:12.085Z,0.85
2022-08-01T17:53:56.700Z,0.82
2022-08-01T17:56:25.304Z,0.70
2022-08-01T17:58:54.383Z,0.98
2022-08-01T18:03:49.761Z,1.08
2022-08-01T18:08:47.764Z,0.80
2022-08-01T18:11:15.647Z,1.17
2022-08-01T18:13:43.343Z,1.20
2022-08-01T18:16:13.055Z,1.27
2022-08-01T18:18:41.100Z,1.33
2022-08-01T18:21:08.895Z,1.35
2022-08-01T18:23:36.918Z,0.95
2022-08-01T18:26:07.460Z,1.40
2022-08-01T18:28:41.753Z,1.30
2022-08-01T18:31:16.901Z,1.30
2022-08-01T18:33:44.691Z,1.30
2022-08-01T18:36:25.466Z,1.08
2022-08-01T18:39:00.053Z,0.88
2022-08-01T18:41:27.740Z,1.20
2022-08-01T18:44:03.934Z,0.90
2022-08-01T18:46:45.425Z,0.90
2022-08-01T18:49:14.403Z,1.10
2022-08-01T18:51:44.732Z,1.20
2022-08-01T18:54:13.194Z,1.27
2022-08-01T18:56:40.897Z,0.98
2022-08-01T18:59:08.541Z,1.15
2022-08-01T19:01:36.202Z,1.55
2022-08-01T19:04:03.838Z,1.00
2022-08-01T19:06:32.782Z,1.20
2022-08-01T19:09:02.505Z,1.00
2022-08-01T19:11:30.815Z,0.98
2022-08-01T19:13:58.513Z,0.90
2022-08-01T19:16:26.421Z,1.00
2022-08-01T19:18:54.154Z,1.30
2022-08-01T19:21:22.073Z,1.30
2022-08-01T19:24:08.707Z,1.00
2022-08-01T19:26:36.922Z,1.17
2022-08-01T19:29:07.467Z,1.02
2022-08-01T19:31:35.100Z,1.00
2022-08-01T19:34:03.201Z,1.10
2022-08-01T19:36:30.921Z,0.93
2022-08-01T19:38:59.900Z,1.10
2022-08-01T19:41:27.511Z,0.98
2022-08-01T19:43:55.109Z,0.85
2022-08-01T19:46:22.904Z,1.10
2022-08-01T19:48:54.113Z,1.10
2022-08-01T19:51:22.261Z,1.10
2022-08-01T19:53:55.157Z,1.23
2022-08-01T19:56:25.562Z,1.05
2022-08-01T19:59:00.012Z,1.25
2022-08-01T20:01:28.207Z,1.20
2022-08-01T20:03:55.950Z,0.90
2022-08-01T20:06:26.252Z,1.10
2022-08-01T20:08:58.968Z,0.80
2022-08-01T20:11:28.265Z,1.00
2022-08-01T20:13:56.028Z,0.90
2022-08-01T20:16:23.778Z,1.15
2022-08-01T20:18:51.389Z,0.90
2022-08-01T20:21:19.112Z,1.30
2022-08-01T20:23:46.895Z,0.82
2022-08-01T20:26:14.789Z,1.13
2022-08-01T20:28:45.864Z,1.10
2022-08-01T20:31:13.623Z,1.00
2022-08-01T20:33:42.988Z,1.00
2022-08-01T20:36:25.812Z,1.20
2022-08-01T20:38:53.820Z,6.90
2022-08-01T20:41:22.495Z,1.30
2022-08-01T20:43:52.836Z,1.23
2022-08-01T20:46:20.445Z,1.17
2022-08-01T20:48:48.276Z,1.10
2022-08-01T20:51:15.869Z,1.10
2022-08-01T20:53:43.868Z,0.98
2022-08-01T20:56:13.134Z,1.20
2022-08-01T20:58:46.912Z,1.05
2022-08-01T21:01:16.925Z,1.10
2022-08-01T21:03:46.481Z,1.00
2022-08-01T21:06:14.627Z,1.13
2022-08-01T21:08:42.725Z,1.08
2022-08-01T21:11:11.609Z,1.40
2022-08-01T21:13:40.181Z,1.20
2022-08-01T21:16:24.077Z,1.50
2022-08-01T21:19:17.247Z,1.30
2022-08-01T21:21:44.409Z,1.50
2022-08-01T21:24:14.599Z,1.50
2022-08-01T21:26:42.293Z,1.30
2022-08-01T21:29:11.003Z,1.50
2022-08-01T21:31:46.310Z,1.17
2022-08-01T21:34:15.325Z,1.30
2022-08-01T21:36:42.938Z,1.10
2022-08-01T21:39:10.652Z,1.35
2022-08-01T21:42:04.890Z,1.13
2022-08-01T21:44:29.073Z,1.38
2022-08-01T21:46:57.066Z,1.25
2022-08-01T21:49:26.113Z,1.23
2022-08-01T21:52:01.091Z,1.30
2022-08-01T21:54:29.562Z,1.35
2022-08-01T21:56:59.078Z,1.20
2022-08-01T21:59:29.916Z,1.38
2022-08-01T22:01:59.427Z,1.33
2022-08-01T22:06:55.828Z,1.60
2022-08-01T22:09:24.241Z,1.50
2022-08-01T22:12:10.237Z,1.45
2022-08-01T22:14:40.758Z,1.30
2022-08-01T22:17:08.318Z,1.15
2022-08-01T22:19:45.052Z,1.77
2022-08-01T22:22:44.168Z,1.83
2022-08-01T22:25:02.534Z,1.75
2022-08-01T22:28:08.119Z,1.67
2022-08-01T22:30:20.520Z,2.33
2022-08-01T22:33:15.084Z,1.60
2022-08-01T22:35:35.746Z,1.52
2022-08-01T22:38:09.746Z,1.95
2022-08-01T22:40:37.741Z,1.90
2022-08-01T22:43:06.905Z,1.80
2022-08-01T22:45:35.547Z,1.45
2022-08-01T22:48:05.480Z,1.67
2022-08-01T22:50:36.676Z,1.67
2022-08-01T22:53:07.103Z,2.03
2022-08-01T22:55:59.360Z,1.92
2022-08-01T22:58:23.908Z,2.10
2022-08-01T23:00:53.694Z,2.35
2022-08-01T23:03:21.774Z,2.03
2022-08-01T23:05:52.588Z,2.35
2022-08-01T23:08:20.512Z,2.72
2022-08-01T23:10:49.404Z,2.92
2022-08-01T23:13:18.047Z,2.97
2022-08-01T23:15:52.321Z,2.23
2022-08-01T23:18:20.293Z,2.55
2022-08-01T23:20:47.935Z,2.50
2022-08-01T23:23:15.740Z,2.72
2022-08-01T23:25:43.400Z,2.33
2022-08-01T23:28:12.412Z,2.40
2022-08-01T23:30:39.972Z,2.50
2022-08-01T23:33:07.591Z,2.25
2022-08-01T23:35:35.645Z,2.30
2022-08-01T23:38:06.860Z,2.22
2022-08-01T23:40:34.922Z,2.47
2022-08-01T23:43:02.755Z,2.45
2022-08-01T23:46:02.504Z,2.55
2022-08-01T23:48:19.308Z,2.58
2022-08-01T23:50:46.983Z,2.15
2022-08-01T23:53:14.622Z,2.20
2022-08-01T23:55:44.038Z,2.20
2022-08-01T23:58:12.154Z,2.28
